Time;durP1;ratioP1;P1;durP2;ratioP2;P2;SDS_P1;SDS_P2;PMS_P1;PMS_P2;Temp;Humidity;BMP_temperature;BMP_pressure;BME280_temperature;BME280_humidity;BME280_pressure;Samples;Min_cycle;Max_cycle;Signal;HPM_P1;HPM_P2
2024/04/09 00:01:01;;;;;;;4.23;2.00;;;17.50;86.90;;;;;;5470969;26;20269;-74
2024/04/09 00:03:37;;;;;;;4.60;2.57;;;17.40;88.90;;;;;;5456599;26;20573;-75
2024/04/09 00:06:14;;;;;;;5.00;2.60;;;17.40;87.60;;;;;;5463827;26;20471;-74
2024/04/09 00:08:44;;;;;;;5.10;2.57;;;17.40;90.10;;;;;;5464441;26;20473;-75
2024/04/09 00:11:20;;;;;;;3.53;2.37;;;17.30;90.20;;;;;;5465880;26;20542;-75
2024/04/09 00:13:50;;;;;;;5.20;2.30;;;17.20;90.80;;;;;;5464387;26;20542;-75
2024/04/09 00:16:22;;;;;;;5.53;2.70;;;17.10;90.60;;;;;;5471202;26;20605;-74
2024/04/09 00:18:53;;;;;;;6.13;3.00;;;17.00;90.00;;;;;;5467252;26;20539;-74
2024/04/09 00:21:20;;;;;;;4.90;2.80;;;16.90;90.30;;;;;;5472288;26;20461;-75
2024/04/09 00:23:49;;;;;;;5.17;2.40;;;16.80;91.20;;;;;;5468332;26;20481;-74
2024/04/09 00:26:16;;;;;;;5.60;2.13;;;16.70;91.30;;;;;;5471075;26;20475;-75
2024/04/09 00:28:44;;;;;;;8.73;2.80;;;16.60;92.00;;;;;;5469439;26;20515;-74
2024/04/09 00:31:10;;;;;;;5.93;2.40;;;16.60;91.80;;;;;;5470535;26;20570;-75
2024/04/09 00:33:39;;;;;;;2.63;2.23;;;16.50;91.70;;;;;;5471147;26;20461;-74
2024/04/09 00:36:12;;;;;;;5.97;2.57;;;16.50;92.10;;;;;;5468891;26;20234;-75
2024/04/09 00:38:43;;;;;;;5.03;2.40;;;16.40;91.50;;;;;;5471297;26;20462;-74
2024/04/09 00:41:10;;;;;;;3.10;2.10;;;16.40;91.70;;;;;;5470686;26;20467;-75
2024/04/09 00:43:39;;;;;;;4.07;1.93;;;16.30;91.80;;;;;;5471950;26;20523;-74
2024/04/09 00:46:05;;;;;;;6.70;2.70;;;16.30;91.60;;;;;;5469377;26;20276;-74
2024/04/09 00:48:34;;;;;;;4.43;2.00;;;16.30;91.70;;;;;;5472874;26;20578;-74
2024/04/09 00:51:00;;;;;;;5.47;2.37;;;16.30;92.20;;;;;;5468804;26;20819;-74
2024/04/09 00:53:32;;;;;;;4.93;2.43;;;16.30;91.80;;;;;;5473810;26;20470;-75
2024/04/09 00:55:59;;;;;;;7.47;2.13;;;16.20;91.30;;;;;;5468124;26;20845;-74
2024/04/09 00:58:27;;;;;;;4.03;1.87;;;16.30;91.20;;;;;;5474605;26;20577;-75
2024/04/09 01:00:54;;;;;;;7.20;2.20;;;16.30;91.40;;;;;;5468353;26;20479;-75
2024/04/09 01:03:23;;;;;;;5.90;2.20;;;16.20;92.50;;;;;;5473622;26;20526;-75
2024/04/09 01:05:49;;;;;;;4.40;2.33;;;16.20;92.40;;;;;;5469076;26;20512;-75
2024/04/09 01:08:17;;;;;;;3.07;1.90;;;16.20;92.60;;;;;;5472132;26;20866;-75
2024/04/09 01:10:45;;;;;;;4.43;2.30;;;16.20;92.80;;;;;;5471544;26;20236;-75
2024/04/09 01:13:14;;;;;;;5.27;2.33;;;16.20;92.80;;;;;;5471749;26;20479;-75
2024/04/09 01:15:40;;;;;;;5.63;2.17;;;16.20;93.40;;;;;;5472126;26;20523;-75
2024/04/09 01:18:09;;;;;;;6.90;2.00;;;16.20;92.90;;;;;;5470950;26;20475;-74
2024/04/09 01:20:35;;;;;;;5.17;2.23;;;16.20;93.20;;;;;;5473925;26;20733;-74
2024/04/09 01:23:07;;;;;;;4.87;2.60;;;16.20;93.60;;;;;;5469437;26;20475;-75
2024/04/09 01:25:33;;;;;;;8.73;3.20;;;16.10;93.70;;;;;;5474332;26;20263;-75
2024/04/09 01:28:02;;;;;;;3.50;1.53;;;16.10;93.90;;;;;;5469293;26;20823;-75
2024/04/09 01:30:28;;;;;;;5.17;2.17;;;16.10;93.80;;;;;;5474760;26;20725;-75
2024/04/09 01:32:57;;;;;;;4.17;2.10;;;16.10;93.10;;;;;;5469653;26;20523;-74
2024/04/09 01:35:23;;;;;;;3.97;2.17;;;16.00;91.70;;;;;;5457697;26;20466;-74
2024/04/09 01:37:51;;;;;;;3.33;1.53;;;16.00;93.00;;;;;;5471351;26;20530;-74
2024/04/09 01:40:20;;;;;;;6.00;2.70;;;16.00;94.30;;;;;;5474422;26;20260;-75
2024/04/09 01:42:48;;;;;;;5.50;2.17;;;16.00;94.10;;;;;;5472304;26;20538;-75
2024/04/09 01:45:14;;;;;;;5.90;1.80;;;16.00;94.00;;;;;;5473424;26;20924;-75
2024/04/09 01:47:42;;;;;;;3.57;1.60;;;15.90;94.20;;;;;;5474328;26;20591;-75
2024/04/09 01:50:10;;;;;;;4.70;2.23;;;15.90;94.20;;;;;;5472439;26;20479;-75
2024/04/09 01:52:40;;;;;;;8.47;2.40;;;15.90;94.40;;;;;;5475275;26;20584;-75
2024/04/09 01:55:07;;;;;;;5.60;2.53;;;15.80;93.90;;;;;;5472168;26;20491;-74
2024/04/09 01:57:39;;;;;;;6.20;2.43;;;15.90;94.20;;;;;;5476218;26;20522;-75
2024/04/09 02:00:11;;;;;;;4.47;2.50;;;15.80;94.00;;;;;;5471871;26;20535;-75
2024/04/09 02:02:41;;;;;;;3.80;1.90;;;15.80;94.40;;;;;;5475831;26;20466;-75
2024/04/09 02:05:08;;;;;;;2.40;1.90;;;15.90;94.30;;;;;;5477756;26;20783;-75
2024/04/09 02:07:36;;;;;;;3.97;2.10;;;15.90;94.30;;;;;;5476341;26;20539;-75
2024/04/09 02:10:03;;;;;;;4.93;1.97;;;15.90;94.20;;;;;;5471426;26;20464;-75
2024/04/09 02:12:31;;;;;;;3.03;2.07;;;15.90;94.70;;;;;;5476582;26;20474;-75
2024/04/09 02:14:59;;;;;;;5.20;2.70;;;15.80;94.90;;;;;;5471011;26;21145;-75
2024/04/09 02:17:28;;;;;;;3.70;2.00;;;15.80;94.50;;;;;;5458499;26;20526;-75
2024/04/09 02:19:53;;;;;;;3.03;2.43;;;15.80;94.50;;;;;;5472671;26;20474;-75
2024/04/09 02:22:22;;;;;;;6.03;3.27;;;15.80;94.00;;;;;;5472791;26;21081;-75
2024/04/09 02:24:48;;;;;;;5.83;2.90;;;15.80;95.10;;;;;;5475207;26;20270;-75
2024/04/09 02:27:16;;;;;;;4.30;2.07;;;15.80;94.60;;;;;;5474810;26;20483;-75
2024/04/09 02:29:42;;;;;;;3.27;2.10;;;15.80;94.50;;;;;;5475881;26;20865;-75
2024/04/09 02:32:13;;;;;;;3.47;1.83;;;15.80;94.50;;;;;;5473284;26;20596;-75
2024/04/09 02:34:40;;;;;;;3.77;2.90;;;15.80;94.80;;;;;;5476702;26;20275;-75
2024/04/09 02:37:08;;;;;;;3.60;2.33;;;15.70;95.10;;;;;;5472271;26;20483;-75
2024/04/09 02:39:34;;;;;;;8.43;2.37;;;15.80;95.20;;;;;;5477578;26;21057;-75
2024/04/09 02:42:03;;;;;;;6.37;2.30;;;15.70;95.80;;;;;;5472284;26;20479;-75
2024/04/09 02:44:29;;;;;;;3.60;2.27;;;15.70;95.80;;;;;;5477320;26;20228;-75
2024/04/09 02:46:57;;;;;;;4.70;2.70;;;15.70;95.90;;;;;;5473857;26;20595;-75
2024/04/09 02:49:26;;;;;;;2.90;1.87;;;15.70;95.80;;;;;;5456905;26;20508;-75
2024/04/09 02:51:54;;;;;;;6.97;2.80;;;15.60;95.80;;;;;;5474700;26;20530;-75
2024/04/09 02:54:20;;;;;;;5.23;1.97;;;15.60;95.90;;;;;;5477061;26;20461;-75
2024/04/09 02:56:48;;;;;;;6.10;2.03;;;15.60;96.10;;;;;;5476563;26;20509;-74
2024/04/09 02:59:14;;;;;;;9.13;2.70;;;15.50;95.90;;;;;;5476121;26;20780;-75
2024/04/09 03:01:42;;;;;;;4.50;2.60;;;15.50;94.50;;;;;;5477829;26;20466;-75
2024/04/09 03:04:08;;;;;;;4.87;2.80;;;15.50;94.80;;;;;;5463217;26;20544;-75
2024/04/09 03:06:39;;;;;;;4.60;2.47;;;15.60;94.10;;;;;;5454133;26;20475;-74
2024/04/09 03:09:05;;;;;;;5.00;2.87;;;15.70;93.80;;;;;;5455924;26;20359;-75
2024/04/09 03:11:33;;;;;;;6.37;2.80;;;15.80;93.80;;;;;;5454729;26;20467;-75
2024/04/09 03:13:59;;;;;;;7.03;3.07;;;16.00;92.00;;;;;;5455449;26;20467;-74
2024/04/09 03:16:28;;;;;;;3.77;2.60;;;16.20;91.40;;;;;;5461210;26;20922;-75
2024/04/09 03:18:54;;;;;;;4.40;2.20;;;16.40;91.30;;;;;;5459763;26;20726;-75
2024/04/09 03:21:22;;;;;;;7.57;2.67;;;16.50;91.30;;;;;;5457126;26;20484;-75
2024/04/09 03:23:50;;;;;;;8.90;3.27;;;16.60;90.60;;;;;;5454532;26;20553;-75
2024/04/09 03:26:19;;;;;;;11.00;2.80;;;16.80;90.20;;;;;;5455857;26;20471;-75
2024/04/09 03:28:44;;;;;;;9.00;2.50;;;16.90;90.10;;;;;;5455026;26;20479;-73
2024/04/09 03:31:13;;;;;;;8.43;2.60;;;17.00;89.80;;;;;;5456815;26;20471;-74
2024/04/09 03:33:38;;;;;;;5.30;2.23;;;17.10;88.40;;;;;;5454454;26;20600;-74
2024/04/09 03:36:08;;;;;;;8.77;2.53;;;17.20;88.60;;;;;;5455215;26;20483;-74
2024/04/09 03:38:37;;;;;;;6.70;2.30;;;17.30;88.80;;;;;;5449506;26;20287;-74
2024/04/09 03:41:09;;;;;;;6.30;3.10;;;17.30;88.20;;;;;;5456419;26;20527;-74
2024/04/09 03:43:37;;;;;;;4.50;2.63;;;17.40;88.50;;;;;;5449813;26;20471;-74
2024/04/09 03:46:06;;;;;;;10.07;3.27;;;17.40;90.20;;;;;;5454897;26;20467;-74
2024/04/09 03:48:34;;;;;;;10.10;3.30;;;17.30;90.20;;;;;;5454711;26;20525;-75
2024/04/09 03:51:00;;;;;;;9.23;2.93;;;17.30;90.60;;;;;;5457892;26;20569;-74
2024/04/09 03:53:32;;;;;;;6.80;3.37;;;17.20;90.70;;;;;;5459575;26;20465;-74
2024/04/09 03:55:58;;;;;;;4.83;3.50;;;17.20;91.40;;;;;;5453913;26;20467;-74
2024/04/09 03:58:31;;;;;;;4.70;2.57;;;17.20;90.90;;;;;;5460059;26;20470;-75
2024/04/09 04:00:57;;;;;;;6.00;2.90;;;17.20;91.50;;;;;;5476792;26;20582;-75
2024/04/09 04:03:26;;;;;;;10.30;3.40;;;17.10;91.30;;;;;;5456975;26;20466;-75
2024/04/09 04:05:52;;;;;;;10.10;3.00;;;17.10;91.80;;;;;;5481934;26;20521;-74
2024/04/09 04:08:21;;;;;;;6.90;3.20;;;17.10;91.80;;;;;;5482410;26;20566;-74
2024/04/09 04:10:53;;;;;;;9.93;3.23;;;17.00;92.30;;;;;;5484136;26;20466;-75
2024/04/09 04:13:21;;;;;;;7.03;2.93;;;17.00;93.10;;;;;;5483053;26;20892;-75
2024/04/09 04:15:58;;;;;;;6.63;3.03;;;16.80;93.50;;;;;;5487585;26;21269;-75
2024/04/09 04:18:27;;;;;;;8.70;3.30;;;16.70;94.10;;;;;;5464017;26;20548;-74
2024/04/09 04:20:53;;;;;;;3.93;2.40;;;16.60;93.80;;;;;;5483064;26;20462;-74
2024/04/09 04:23:21;;;;;;;9.77;2.97;;;16.50;94.60;;;;;;5483380;26;20521;-75
2024/04/09 04:25:59;;;;;;;13.87;3.70;;;16.40;94.20;;;;;;5484097;26;20599;-74
2024/04/09 04:28:27;;;;;;;8.53;2.90;;;16.40;95.00;;;;;;5459886;26;20898;-75
2024/04/09 04:30:53;;;;;;;8.10;2.87;;;16.30;94.80;;;;;;5483535;26;20562;-74
2024/04/09 04:33:24;;;;;;;7.50;3.17;;;16.30;94.40;;;;;;5485006;26;20470;-75
2024/04/09 04:35:51;;;;;;;4.70;2.50;;;16.20;95.60;;;;;;5484064;26;20751;-75
2024/04/09 04:38:20;;;;;;;5.17;2.80;;;16.10;96.00;;;;;;5483242;26;20821;-76
2024/04/09 04:40:46;;;;;;;10.43;3.20;;;16.10;96.30;;;;;;5485224;26;20542;-75
2024/04/09 04:43:15;;;;;;;9.33;3.27;;;16.00;96.30;;;;;;5482566;26;20513;-75
2024/04/09 04:45:43;;;;;;;6.93;3.10;;;15.90;96.50;;;;;;5484811;26;20508;-76
2024/04/09 04:48:09;;;;;;;7.13;2.40;;;15.70;97.40;;;;;;5482872;26;20470;-75
2024/04/09 04:50:41;;;;;;;8.63;3.10;;;15.60;97.00;;;;;;5485361;26;20469;-75
2024/04/09 04:53:07;;;;;;;5.50;2.80;;;15.60;97.40;;;;;;5483251;26;20470;-75
2024/04/09 04:55:36;;;;;;;10.57;3.63;;;15.50;97.30;;;;;;5484940;26;20530;-77
2024/04/09 04:58:02;;;;;;;8.23;3.13;;;15.40;97.20;;;;;;5483158;26;20508;-75
2024/04/09 05:00:30;;;;;;;6.90;3.00;;;15.40;96.70;;;;;;5484917;26;20870;-75
2024/04/09 05:02:57;;;;;;;5.03;2.50;;;15.40;96.30;;;;;;5483578;26;20513;-75
2024/04/09 05:05:25;;;;;;;5.13;2.80;;;15.40;96.50;;;;;;5457485;26;20574;-75
2024/04/09 05:07:54;;;;;;;6.10;2.60;;;15.40;96.80;;;;;;5485518;26;20857;-75
2024/04/09 05:10:22;;;;;;;5.10;2.90;;;15.40;96.60;;;;;;5485106;26;20573;-77
2024/04/09 05:12:49;;;;;;;4.77;2.83;;;15.50;96.10;;;;;;5485744;26;20469;-77
2024/04/09 05:15:18;;;;;;;10.80;3.60;;;15.50;96.20;;;;;;5483821;26;20471;-77
2024/04/09 05:17:44;;;;;;;8.77;3.20;;;15.50;97.20;;;;;;5485912;26;20466;-77
2024/04/09 05:20:14;;;;;;;5.93;4.10;;;15.50;96.40;;;;;;5484790;26;20535;-77
2024/04/09 05:22:40;;;;;;;6.90;2.50;;;15.60;96.20;;;;;;5486289;26;20541;-76
2024/04/09 05:25:12;;;;;;;9.83;2.87;;;15.70;96.00;;;;;;5484653;26;20462;-77
2024/04/09 05:27:38;;;;;;;4.40;2.00;;;15.90;95.90;;;;;;5486630;26;20466;-77
2024/04/09 05:30:09;;;;;;;6.67;2.50;;;16.00;95.90;;;;;;5485546;26;20936;-77
2024/04/09 05:32:35;;;;;;;3.30;1.90;;;16.10;96.00;;;;;;5486270;26;20883;-76
2024/04/09 05:35:04;;;;;;;4.40;2.50;;;16.10;96.00;;;;;;5485358;26;20470;-76
2024/04/09 05:37:30;;;;;;;4.80;1.87;;;16.30;96.20;;;;;;5486566;25;20635;-76
2024/04/09 05:39:59;;;;;;;8.27;2.00;;;16.40;96.10;;;;;;5486443;26;20474;-75
2024/04/09 05:42:27;;;;;;;2.00;1.70;;;16.50;96.30;;;;;;5472453;26;20877;-75
2024/04/09 05:44:55;;;;;;;5.10;1.83;;;16.60;96.40;;;;;;5486751;26;20466;-76
2024/04/09 05:47:24;;;;;;;3.40;1.97;;;16.70;96.50;;;;;;5486293;26;21089;-76
2024/04/09 05:49:53;;;;;;;5.97;1.90;;;16.70;96.20;;;;;;5487187;26;20922;-76
2024/04/09 05:52:18;;;;;;;3.00;1.90;;;16.80;96.30;;;;;;5486485;26;20531;-76
2024/04/09 05:54:47;;;;;;;3.20;2.00;;;16.80;96.50;;;;;;5487104;26;20526;-76
2024/04/09 05:57:13;;;;;;;3.53;1.83;;;16.90;96.50;;;;;;5486652;26;20236;-75
2024/04/09 05:59:44;;;;;;;5.60;1.57;;;16.90;96.50;;;;;;5472389;26;21065;-75
2024/04/09 06:02:09;;;;;;;6.63;2.23;;;16.90;96.60;;;;;;5444192;26;20229;-76
2024/04/09 06:04:38;;;;;;;3.20;1.87;;;17.00;96.70;;;;;;5448576;26;20518;-76
2024/04/09 06:07:04;;;;;;;5.50;1.80;;;17.00;96.50;;;;;;5446281;26;20726;-76
2024/04/09 06:09:32;;;;;;;2.40;2.17;;;17.10;96.60;;;;;;5449464;26;20483;-76
2024/04/09 06:11:58;;;;;;;3.70;1.97;;;17.10;96.70;;;;;;5449848;26;20798;-76
2024/04/09 06:14:26;;;;;;;3.67;1.77;;;17.20;96.70;;;;;;5436372;26;20479;-76
2024/04/09 06:16:55;;;;;;;3.70;1.50;;;17.20;96.70;;;;;;5451486;26;20479;-73
2024/04/09 06:19:23;;;;;;;3.60;1.53;;;17.30;96.90;;;;;;5451448;26;21011;-74
2024/04/09 06:21:49;;;;;;;2.33;1.20;;;17.30;96.80;;;;;;5451355;26;20537;-74
2024/04/09 06:24:17;;;;;;;2.40;1.77;;;17.30;96.90;;;;;;5451251;26;20486;-75
2024/04/09 06:26:43;;;;;;;2.03;1.60;;;17.30;96.90;;;;;;5451933;26;20299;-74
2024/04/09 06:29:11;;;;;;;4.60;1.50;;;17.40;97.10;;;;;;5451943;26;20467;-74
2024/04/09 06:31:37;;;;;;;3.30;1.43;;;17.40;96.80;;;;;;5452314;26;20276;-75
2024/04/09 06:34:08;;;;;;;3.90;1.63;;;17.40;96.90;;;;;;5451989;26;21007;-74
2024/04/09 06:36:34;;;;;;;2.87;1.57;;;17.40;96.70;;;;;;5452388;26;20337;-75
2024/04/09 06:39:02;;;;;;;2.87;1.53;;;17.50;96.50;;;;;;5452699;26;20831;-75
2024/04/09 06:41:28;;;;;;;3.33;1.80;;;17.50;96.80;;;;;;5438924;26;20268;-74
2024/04/09 06:43:56;;;;;;;2.37;1.37;;;17.60;96.90;;;;;;5452607;26;20824;-75
2024/04/09 06:46:22;;;;;;;3.53;1.80;;;17.70;96.90;;;;;;5452776;26;21171;-75
2024/04/09 06:48:52;;;;;;;2.87;1.53;;;17.70;96.60;;;;;;5452518;26;20598;-75
2024/04/09 06:51:21;;;;;;;3.30;2.20;;;17.80;96.60;;;;;;5442071;26;20597;-75
2024/04/09 06:53:49;;;;;;;7.73;1.63;;;18.00;96.60;;;;;;5451857;26;20535;-75
2024/04/09 06:56:15;;;;;;;5.07;2.17;;;18.10;96.60;;;;;;5452241;26;20475;-75
2024/04/09 06:58:47;;;;;;;4.13;1.50;;;18.20;96.80;;;;;;5451404;26;20543;-75
2024/04/09 07:01:12;;;;;;;5.33;1.70;;;18.30;96.90;;;;;;5453391;26;20237;-75
2024/04/09 07:03:41;;;;;;;1.70;1.30;;;18.40;97.00;;;;;;5452289;26;20514;-75
2024/04/09 07:06:06;;;;;;;9.73;1.50;;;18.40;97.00;;;;;;5452891;26;20722;-75
2024/04/09 07:08:37;;;;;;;7.80;1.80;;;18.50;96.90;;;;;;5452574;26;20536;-75
2024/04/09 07:11:04;;;;;;;3.70;1.80;;;18.50;96.80;;;;;;5454737;26;20234;-75
2024/04/09 07:13:33;;;;;;;2.50;1.50;;;18.50;97.00;;;;;;5451615;26;20475;-75
2024/04/09 07:15:59;;;;;;;3.40;1.23;;;18.50;97.30;;;;;;5452794;26;20471;-75
2024/04/09 07:18:28;;;;;;;2.17;1.40;;;18.20;97.70;;;;;;5454045;26;25243;-75
2024/04/09 07:20:53;;;;;;;3.10;1.67;;;18.10;98.00;;;;;;5452796;26;20597;-75
2024/04/09 07:23:22;;;;;;;3.37;2.03;;;18.10;98.00;;;;;;5455494;26;21005;-75
2024/04/09 07:25:51;;;;;;;6.10;1.50;;;18.00;97.90;;;;;;5456348;26;20246;-75
2024/04/09 07:28:19;;;;;;;1.50;1.10;;;18.00;98.30;;;;;;5457966;26;20530;-75
2024/04/09 07:30:45;;;;;;;6.30;2.10;;;17.90;98.10;;;;;;5457063;26;20995;-75
2024/04/09 07:33:15;;;;;;;9.30;1.80;;;17.90;98.30;;;;;;5458679;26;20467;-74
2024/04/09 07:35:40;;;;;;;3.37;2.00;;;17.80;98.40;;;;;;5456389;26;20233;-75
2024/04/09 07:38:09;;;;;;;5.63;1.53;;;17.70;98.80;;;;;;5459233;26;20467;-75
2024/04/09 07:40:34;;;;;;;5.00;2.23;;;17.70;98.80;;;;;;5464482;26;20338;-75
2024/04/09 07:43:06;;;;;;;4.47;1.53;;;17.60;99.40;;;;;;5457270;26;20880;-75
2024/04/09 07:45:31;;;;;;;2.47;1.60;;;17.40;99.80;;;;;;5457153;26;20604;-75
2024/04/09 07:48:00;;;;;;;2.03;1.30;;;17.20;99.90;;;;;;5457798;26;20525;-75
2024/04/09 07:50:26;;;;;;;4.20;2.00;;;17.00;99.90;;;;;;5454947;26;20458;-74
2024/04/09 07:52:54;;;;;;;1.00;0.90;;;16.90;99.90;;;;;;5457832;26;20519;-75
2024/04/09 07:55:20;;;;;;;1.53;1.30;;;16.70;99.90;;;;;;5459293;26;20275;-74
2024/04/09 07:57:48;;;;;;;2.13;1.37;;;16.50;99.90;;;;;;5462586;26;20470;-74
2024/04/09 08:00:17;;;;;;;1.37;1.07;;;16.30;99.90;;;;;;5462990;26;20294;-74
2024/04/09 08:02:46;;;;;;;2.03;1.40;;;16.10;99.90;;;;;;5458422;26;20495;-74
2024/04/09 08:05:12;;;;;;;1.40;1.00;;;15.80;99.90;;;;;;5459232;26;20470;-74
2024/04/09 08:07:41;;;;;;;1.60;1.00;;;15.60;99.90;;;;;;5457900;26;20472;-74
2024/04/09 08:10:11;;;;;;;1.20;0.80;;;15.30;99.90;;;;;;5460572;26;20902;-75
2024/04/09 08:12:40;;;;;;;1.23;0.90;;;15.00;99.50;;;;;;5446440;26;20566;-75
2024/04/09 08:15:08;;;;;;;0.80;0.63;;;14.70;99.60;;;;;;5460180;26;20550;-75
2024/04/09 08:17:39;;;;;;;1.00;0.90;;;14.50;99.90;;;;;;5470932;26;20478;-75
2024/04/09 08:20:07;;;;;;;2.97;0.90;;;14.40;99.90;;;;;;5472481;26;20985;-75
2024/04/09 08:22:37;;;;;;;0.90;0.70;;;14.30;99.90;;;;;;5459542;26;20542;-76
2024/04/09 08:25:03;;;;;;;2.10;1.10;;;14.20;99.60;;;;;;5456361;26;20467;-75
2024/04/09 08:27:36;;;;;;;0.93;0.70;;;14.10;99.30;;;;;;5460793;26;20462;-75
2024/04/09 08:30:03;;;;;;;1.77;0.80;;;14.00;99.30;;;;;;5457015;26;20518;-76
2024/04/09 08:32:32;;;;;;;0.80;0.60;;;13.80;99.10;;;;;;5460681;26;21104;-75
2024/04/09 08:35:01;;;;;;;0.80;0.60;;;13.70;99.50;;;;;;5454272;26;21123;-76
2024/04/09 08:37:30;;;;;;;1.53;0.90;;;13.50;99.50;;;;;;5462109;26;20485;-75
2024/04/09 08:39:56;;;;;;;2.97;1.10;;;13.50;99.50;;;;;;5456898;26;21007;-75
2024/04/09 08:42:26;;;;;;;1.73;0.93;;;13.40;99.50;;;;;;5458232;26;20462;-75
2024/04/09 08:44:55;;;;;;;0.80;0.60;;;13.30;99.70;;;;;;5456289;26;20513;-75
2024/04/09 08:47:24;;;;;;;1.93;0.90;;;13.10;99.40;;;;;;5463597;26;20478;-75
2024/04/09 08:49:51;;;;;;;0.90;0.70;;;13.00;99.50;;;;;;5457346;26;21128;-75
2024/04/09 08:52:25;;;;;;;0.80;0.70;;;12.90;99.50;;;;;;5463613;26;20523;-75
2024/04/09 08:54:51;;;;;;;0.90;0.70;;;12.90;99.30;;;;;;5458007;26;20519;-75
2024/04/09 08:57:21;;;;;;;1.10;0.80;;;12.80;99.00;;;;;;5463044;26;20476;-75
2024/04/09 08:59:47;;;;;;;0.90;0.73;;;12.70;98.70;;;;;;5459050;26;20821;-75
2024/04/09 09:02:16;;;;;;;1.00;0.70;;;12.70;98.40;;;;;;5463852;26;20522;-75
2024/04/09 09:04:44;;;;;;;0.80;0.60;;;12.60;98.40;;;;;;5459370;26;20890;-75
2024/04/09 09:07:16;;;;;;;0.80;0.60;;;12.50;98.30;;;;;;5463777;26;20467;-75
2024/04/09 09:09:46;;;;;;;0.80;0.70;;;12.50;98.70;;;;;;5460144;26;20821;-75
2024/04/09 09:12:15;;;;;;;0.90;0.80;;;12.40;98.40;;;;;;5463571;26;20824;-75
2024/04/09 09:14:48;;;;;;;0.80;0.70;;;12.40;98.10;;;;;;5460020;26;20999;-75
2024/04/09 09:17:17;;;;;;;0.90;0.70;;;12.30;98.10;;;;;;5465418;26;20467;-76
2024/04/09 09:19:43;;;;;;;0.90;0.70;;;12.20;97.90;;;;;;5460135;26;20464;-75
2024/04/09 09:22:12;;;;;;;1.13;0.80;;;12.20;98.00;;;;;;5462888;26;20577;-75
2024/04/09 09:24:38;;;;;;;1.73;1.07;;;12.20;98.10;;;;;;5460657;26;20242;-75
2024/04/09 09:27:10;;;;;;;0.80;0.60;;;12.10;98.10;;;;;;5461875;26;21075;-76
2024/04/09 09:29:37;;;;;;;1.00;0.73;;;12.10;97.80;;;;;;5460676;26;20601;-75
2024/04/09 09:32:06;;;;;;;0.90;0.70;;;12.10;97.70;;;;;;5461952;26;20471;-75
2024/04/09 09:34:37;;;;;;;0.80;0.63;;;12.00;97.60;;;;;;5462578;26;20874;-75
2024/04/09 09:37:08;;;;;;;1.30;0.80;;;11.90;97.80;;;;;;5462898;26;20547;-75
2024/04/09 09:39:35;;;;;;;1.00;0.70;;;11.90;97.80;;;;;;5464307;26;20520;-75
2024/04/09 09:42:04;;;;;;;0.90;0.70;;;11.90;98.10;;;;;;5461920;26;20929;-75
2024/04/09 09:44:35;;;;;;;0.80;0.60;;;11.90;97.80;;;;;;5464778;26;20470;-75
2024/04/09 09:47:06;;;;;;;0.80;0.60;;;11.90;97.90;;;;;;5462592;26;20875;-75
2024/04/09 09:49:32;;;;;;;0.80;0.70;;;11.90;97.80;;;;;;5464884;26;20471;-75
2024/04/09 09:52:02;;;;;;;0.90;0.70;;;11.90;97.70;;;;;;5456003;26;20475;-76
2024/04/09 09:54:28;;;;;;;1.43;0.70;;;11.80;97.60;;;;;;5466240;26;20466;-75
2024/04/09 09:57:02;;;;;;;1.47;1.07;;;11.80;97.80;;;;;;5462547;26;20823;-76
2024/04/09 09:59:35;;;;;;;1.37;0.80;;;11.80;97.60;;;;;;5457413;26;20470;-75
2024/04/09 10:02:05;;;;;;;0.80;0.60;;;11.80;97.60;;;;;;5463444;26;20455;-76
2024/04/09 10:04:31;;;;;;;0.80;0.60;;;11.80;97.50;;;;;;5465374;26;20520;-75
2024/04/09 10:07:02;;;;;;;1.10;0.70;;;11.80;97.30;;;;;;5462377;26;20475;-76
2024/04/09 10:09:41;;;;;;;0.90;0.80;;;11.80;97.70;;;;;;5457219;26;20516;-76
2024/04/09 10:12:10;;;;;;;0.80;0.60;;;11.80;97.60;;;;;;5459627;26;20548;-75
2024/04/09 10:14:41;;;;;;;0.80;0.70;;;11.90;97.60;;;;;;5465256;26;20462;-76
2024/04/09 10:17:13;;;;;;;2.10;0.90;;;12.00;97.70;;;;;;5468504;26;20526;-76
2024/04/09 10:19:44;;;;;;;0.90;0.70;;;12.10;97.30;;;;;;5464387;26;20514;-76
2024/04/09 10:22:09;;;;;;;1.10;0.70;;;12.20;96.90;;;;;;5468635;26;20526;-75
2024/04/09 10:24:38;;;;;;;0.83;0.67;;;12.10;96.90;;;;;;5465282;26;20818;-75
2024/04/09 10:27:04;;;;;;;0.90;0.70;;;12.00;96.80;;;;;;5464313;26;20243;-75
2024/04/09 10:29:33;;;;;;;1.40;0.70;;;11.80;96.80;;;;;;5467438;26;20529;-75
2024/04/09 10:32:12;;;;;;;1.23;0.60;;;11.70;97.30;;;;;;5463048;26;20468;-75
2024/04/09 10:34:41;;;;;;;1.00;0.77;;;11.70;97.40;;;;;;5464965;26;20871;-75
2024/04/09 10:37:08;;;;;;;1.63;0.83;;;11.60;97.40;;;;;;5465960;26;21047;-74
2024/04/09 10:39:36;;;;;;;1.47;0.80;;;11.60;97.30;;;;;;5466527;26;20469;-75
2024/04/09 10:42:04;;;;;;;1.00;0.80;;;11.70;97.40;;;;;;5464533;26;20519;-75
2024/04/09 10:44:32;;;;;;;0.90;0.80;;;11.80;97.70;;;;;;5468049;26;20482;-74
2024/04/09 10:47:02;;;;;;;0.80;0.70;;;11.90;97.00;;;;;;5463706;26;20468;-75
2024/04/09 10:49:32;;;;;;;0.90;0.60;;;12.00;96.60;;;;;;5468790;26;20518;-75
2024/04/09 10:51:58;;;;;;;1.10;0.90;;;12.00;96.20;;;;;;5453064;26;20513;-74
2024/04/09 10:54:28;;;;;;;0.80;0.60;;;11.90;96.10;;;;;;5455820;26;20462;-74
2024/04/09 10:57:00;;;;;;;1.20;0.90;;;11.80;96.30;;;;;;5456197;26;20530;-75
2024/04/09 10:59:28;;;;;;;0.80;0.60;;;11.70;96.50;;;;;;5456406;26;20454;-74
2024/04/09 11:01:55;;;;;;;0.90;0.77;;;11.80;96.50;;;;;;5456344;26;20512;-74
2024/04/09 11:04:26;;;;;;;0.80;0.60;;;11.80;96.60;;;;;;5468646;26;20521;-75
2024/04/09 11:06:52;;;;;;;0.90;0.70;;;11.80;96.60;;;;;;5456880;26;20471;-74
2024/04/09 11:09:21;;;;;;;0.80;0.80;;;11.80;96.30;;;;;;5453438;26;20462;-75
2024/04/09 11:11:47;;;;;;;1.70;0.90;;;11.80;95.80;;;;;;5463005;26;20466;-74
2024/04/09 11:14:17;;;;;;;0.80;0.70;;;11.70;96.40;;;;;;5462638;26;20479;-75
2024/04/09 11:16:46;;;;;;;2.97;0.93;;;11.70;96.10;;;;;;5466211;26;20852;-75
2024/04/09 11:19:23;;;;;;;0.80;0.70;;;11.70;96.50;;;;;;5466219;26;20655;-74
2024/04/09 11:21:52;;;;;;;1.10;0.80;;;11.50;96.10;;;;;;5465196;26;20517;-74
2024/04/09 11:24:21;;;;;;;0.80;0.60;;;11.50;96.30;;;;;;5468013;26;20471;-74
2024/04/09 11:26:47;;;;;;;0.90;0.70;;;11.40;96.20;;;;;;5466659;26;20827;-74
2024/04/09 11:29:23;;;;;;;1.57;0.70;;;11.30;96.30;;;;;;5468634;26;20543;-73
2024/04/09 11:31:51;;;;;;;0.83;0.67;;;11.20;96.10;;;;;;5465193;26;21064;-75
2024/04/09 11:34:30;;;;;;;2.80;0.90;;;11.10;96.20;;;;;;5468744;26;20467;-75
2024/04/09 11:36:59;;;;;;;0.80;0.70;;;11.00;96.40;;;;;;5458068;26;20467;-76
2024/04/09 11:39:28;;;;;;;0.90;0.73;;;10.90;96.40;;;;;;5456180;26;20527;-75
2024/04/09 11:41:54;;;;;;;0.80;0.60;;;10.90;96.80;;;;;;5464682;26;20817;-76
2024/04/09 11:44:22;;;;;;;0.80;0.60;;;10.80;96.90;;;;;;5470654;26;20462;-76
2024/04/09 11:46:48;;;;;;;0.90;0.70;;;10.70;97.10;;;;;;5467540;26;21154;-75
2024/04/09 11:49:17;;;;;;;1.33;0.90;;;10.70;97.10;;;;;;5468369;26;20463;-75
2024/04/09 11:51:42;;;;;;;1.00;0.90;;;10.60;97.10;;;;;;5468904;26;20899;-75
2024/04/09 11:54:14;;;;;;;0.80;0.60;;;10.60;97.30;;;;;;5467900;26;20475;-76
2024/04/09 11:56:39;;;;;;;1.10;0.70;;;10.60;97.20;;;;;;5469816;26;20233;-76
2024/04/09 11:59:08;;;;;;;1.83;1.00;;;10.60;97.10;;;;;;5467372;26;20862;-76
2024/04/09 12:01:34;;;;;;;1.00;0.80;;;10.60;97.20;;;;;;5471142;26;20233;-75
2024/04/09 12:04:03;;;;;;;0.80;0.60;;;10.60;97.20;;;;;;5466074;26;20237;-76
2024/04/09 12:06:28;;;;;;;0.95;0.75;;;10.60;97.20;;;;;;5472395;26;20583;-76
2024/04/09 12:08:57;;;;;;;1.20;0.80;;;10.60;97.10;;;;;;5459084;26;20253;-76
2024/04/09 12:11:29;;;;;;;0.90;0.80;;;10.50;97.10;;;;;;5465789;26;20465;-76
2024/04/09 12:13:54;;;;;;;0.80;0.60;;;10.50;97.10;;;;;;5462511;26;20246;-76
2024/04/09 12:16:23;;;;;;;0.80;0.70;;;10.50;97.00;;;;;;5475872;26;20233;-77
2024/04/09 12:18:51;;;;;;;1.00;0.75;;;10.40;97.30;;;;;;5463884;26;20241;-76
2024/04/09 12:21:20;;;;;;;1.00;0.70;;;10.40;97.00;;;;;;5474983;26;20302;-77
2024/04/09 12:23:46;;;;;;;1.63;0.77;;;10.40;96.90;;;;;;5466148;26;20963;-76
2024/04/09 12:26:14;;;;;;;1.90;0.80;;;10.50;96.90;;;;;;5473122;26;20237;-77
2024/04/09 12:28:43;;;;;;;1.00;0.70;;;10.50;96.90;;;;;;5467800;26;20903;-76
2024/04/09 12:31:11;;;;;;;1.00;0.70;;;10.50;97.00;;;;;;5473814;26;20277;-76
2024/04/09 12:33:37;;;;;;;0.80;0.70;;;10.50;96.20;;;;;;5469404;26;20717;-76
2024/04/09 12:36:06;;;;;;;0.90;0.70;;;10.50;96.60;;;;;;5471719;26;20337;-76
2024/04/09 12:38:32;;;;;;;0.90;0.70;;;10.50;96.50;;;;;;5470455;26;20236;-76
2024/04/09 12:41:00;;;;;;;0.80;0.70;;;10.40;96.80;;;;;;5471401;26;20241;-77
2024/04/09 12:43:26;;;;;;;0.80;0.70;;;10.50;97.00;;;;;;5453019;26;20324;-76
2024/04/09 12:45:58;;;;;;;0.90;0.70;;;10.50;96.60;;;;;;5473355;26;20244;-76
2024/04/09 12:48:24;;;;;;;1.10;0.80;;;10.50;96.80;;;;;;5451545;26;20781;-76
2024/04/09 12:50:52;;;;;;;0.80;0.60;;;10.50;96.90;;;;;;5474845;26;20458;-76